createdAt,value
2019-06-26T00:00:24.247Z,98879.86
2019-06-26T00:02:52.952Z,98876.17
2019-06-26T00:05:21.669Z,98871.32
2019-06-26T00:07:50.436Z,98871.04
2019-06-26T00:10:19.166Z,98871.08
2019-06-26T00:12:47.897Z,98859.48
2019-06-26T00:15:16.843Z,98860.59
2019-06-26T00:17:45.564Z,98860.11
2019-06-26T00:20:15.896Z,98857.98
2019-06-26T00:22:44.632Z,98856.09
2019-06-26T00:25:13.745Z,98853.53
2019-06-26T00:27:42.510Z,98856.88
2019-06-26T00:30:12.617Z,98858.53
2019-06-26T00:32:41.322Z,98861.06
2019-06-26T00:35:10.090Z,98863.55
2019-06-26T00:37:38.802Z,98862.52
2019-06-26T00:40:08.006Z,98857.84
2019-06-26T00:42:36.721Z,98867.16
2019-06-26T00:45:08.427Z,98861.88
2019-06-26T00:47:37.190Z,98855.03
2019-06-26T00:50:10.675Z,98856.95
2019-06-26T00:52:39.379Z,98861.08
2019-06-26T00:55:08.194Z,98860.80
2019-06-26T00:57:37.019Z,98863.60
2019-06-26T01:00:10.272Z,98865.36
2019-06-26T01:02:39.085Z,98855.83
2019-06-26T01:05:12.799Z,98856.68
2019-06-26T01:07:41.514Z,98867.09
2019-06-26T01:10:11.835Z,98864.86
2019-06-26T01:12:40.581Z,98859.70
2019-06-26T01:15:10.203Z,98869.47
2019-06-26T01:17:38.967Z,98873.46
2019-06-26T01:20:08.519Z,98878.34
2019-06-26T01:22:37.235Z,98879.13
2019-06-26T01:25:06.458Z,98870.83
2019-06-26T01:27:35.177Z,98875.31
2019-06-26T01:30:05.803Z,98872.30
2019-06-26T01:32:34.656Z,98878.72
2019-06-26T01:35:04.571Z,98875.98
2019-06-26T01:37:33.385Z,98876.71
2019-06-26T01:40:02.151Z,98885.68
2019-06-26T01:42:30.870Z,98886.84
2019-06-26T01:44:59.577Z,98894.92
2019-06-26T01:47:28.287Z,98903.59
2019-06-26T01:49:57.003Z,98908.00
2019-06-26T01:52:25.750Z,98902.56
2019-06-26T01:54:54.471Z,98899.83
2019-06-26T01:57:23.184Z,98903.33
2019-06-26T01:59:51.938Z,98903.64
2019-06-26T02:02:20.642Z,98897.44
2019-06-26T02:04:49.354Z,98899.61
2019-06-26T02:07:18.085Z,98907.51
2019-06-26T02:09:46.802Z,98906.00
2019-06-26T02:12:15.554Z,98903.80
2019-06-26T02:14:44.267Z,98898.83
2019-06-26T02:17:12.973Z,98904.48
2019-06-26T02:19:41.705Z,98902.16
2019-06-26T02:22:10.414Z,98903.48
2019-06-26T02:24:39.156Z,98906.56
2019-06-26T02:27:07.964Z,98898.30
2019-06-26T02:29:36.679Z,98906.91
2019-06-26T02:32:05.390Z,98904.23
2019-06-26T02:34:34.096Z,98903.76
2019-06-26T02:37:02.858Z,98908.16
2019-06-26T02:39:31.566Z,98904.70
2019-06-26T02:42:00.290Z,98904.23
2019-06-26T02:44:28.995Z,98902.50
2019-06-26T02:47:17.589Z,98898.70
2019-06-26T02:49:28.173Z,98899.73
2019-06-26T02:51:56.892Z,98889.58
2019-06-26T02:54:25.606Z,98887.56
2019-06-26T02:56:54.317Z,98884.64
2019-06-26T02:59:23.019Z,98887.75
2019-06-26T03:01:51.795Z,98886.67
2019-06-26T03:04:20.497Z,98881.23
2019-06-26T03:06:49.201Z,98884.28
2019-06-26T03:09:17.922Z,98882.15
2019-06-26T03:11:46.638Z,98879.91
2019-06-26T03:14:15.413Z,98883.05
2019-06-26T03:16:44.124Z,98885.85
2019-06-26T03:19:12.831Z,98881.18
2019-06-26T03:21:41.549Z,98880.59
2019-06-26T03:24:10.255Z,98883.41
2019-06-26T03:26:39.001Z,98884.03
2019-06-26T03:29:07.709Z,98884.73
2019-06-26T03:31:36.426Z,98880.39
2019-06-26T03:34:05.245Z,98885.55
2019-06-26T03:36:33.952Z,98883.88
2019-06-26T03:39:02.703Z,98890.16
2019-06-26T03:41:31.410Z,98890.86
2019-06-26T03:44:00.163Z,98884.14
2019-06-26T03:46:28.858Z,98896.75
2019-06-26T03:48:57.769Z,98896.25
2019-06-26T03:51:26.533Z,98894.48
2019-06-26T03:53:55.246Z,98897.50
2019-06-26T03:56:23.954Z,98893.79
2019-06-26T03:58:52.675Z,98898.44
2019-06-26T04:01:21.384Z,98895.16
2019-06-26T04:03:50.099Z,98901.36
2019-06-26T04:06:18.888Z,98899.49
2019-06-26T04:08:47.654Z,98906.06
2019-06-26T04:11:16.384Z,98904.96
2019-06-26T04:13:45.093Z,98911.73
2019-06-26T04:16:13.825Z,98904.73
2019-06-26T04:18:42.538Z,98909.95
2019-06-26T04:21:11.307Z,98908.11
2019-06-26T04:23:40.017Z,98916.80
2019-06-26T04:26:08.730Z,98915.40
2019-06-26T04:28:37.449Z,98919.55
2019-06-26T04:31:06.154Z,98912.80
2019-06-26T04:33:34.904Z,98915.22
2019-06-26T04:36:03.661Z,98920.48
2019-06-26T04:38:32.393Z,98922.16
2019-06-26T04:41:01.104Z,98922.95
2019-06-26T04:43:29.812Z,98920.71
2019-06-26T04:45:58.888Z,98928.45
2019-06-26T04:48:27.846Z,98926.39
2019-06-26T04:50:56.576Z,98924.50
2019-06-26T04:53:25.288Z,98931.94
2019-06-26T04:55:53.989Z,98937.30
2019-06-26T04:58:22.750Z,98936.55
2019-06-26T05:00:51.456Z,98934.92
2019-06-26T05:03:20.176Z,98940.41
2019-06-26T05:05:48.885Z,98938.23
2019-06-26T05:08:17.597Z,98943.19
2019-06-26T05:10:46.367Z,98945.53
2019-06-26T05:13:15.079Z,98945.53
2019-06-26T05:15:43.782Z,98948.38
2019-06-26T05:18:12.501Z,98944.97
2019-06-26T05:20:41.208Z,98944.05
2019-06-26T05:23:09.972Z,98944.34
2019-06-26T05:25:38.681Z,98945.00
2019-06-26T05:28:08.571Z,98953.19
2019-06-26T05:30:37.825Z,98955.38
2019-06-26T05:33:06.529Z,98962.72
2019-06-26T05:35:35.509Z,98965.08
2019-06-26T05:38:04.382Z,98965.08
2019-06-26T05:40:33.095Z,98964.90
2019-06-26T05:43:01.812Z,98963.19
2019-06-26T05:45:30.536Z,98967.01
2019-06-26T05:47:59.237Z,98978.31
2019-06-26T05:50:28.101Z,98977.56
2019-06-26T05:52:56.833Z,98977.39
2019-06-26T05:55:25.547Z,98983.99
2019-06-26T05:57:54.297Z,98985.55
2019-06-26T06:00:23.024Z,98990.22
2019-06-26T06:02:54.018Z,98984.47
2019-06-26T06:05:22.356Z,98984.23
2019-06-26T06:07:51.050Z,98985.02
2019-06-26T06:10:19.901Z,98985.18
2019-06-26T06:12:48.610Z,98981.02
2019-06-26T06:15:19.226Z,98987.69
2019-06-26T06:17:48.488Z,98987.69
2019-06-26T06:20:20.152Z,98981.12
2019-06-26T06:22:48.918Z,98985.57
2019-06-26T06:25:17.623Z,98987.81
2019-06-26T06:27:46.332Z,98983.81
2019-06-26T06:30:15.304Z,98979.96
2019-06-26T06:32:43.992Z,98986.11
2019-06-26T06:35:13.006Z,98983.75
2019-06-26T06:37:41.716Z,98982.59
2019-06-26T06:40:10.929Z,98984.02
2019-06-26T06:42:39.682Z,98985.58
2019-06-26T06:45:08.985Z,98977.13
2019-06-26T06:47:37.693Z,98977.32
2019-06-26T06:50:06.712Z,98978.41
2019-06-26T06:52:35.443Z,98982.12
2019-06-26T06:55:07.781Z,98977.08
2019-06-26T06:57:36.529Z,98975.80
2019-06-26T07:00:09.065Z,98976.20
2019-06-26T07:02:37.777Z,98983.19
2019-06-26T07:05:07.992Z,98982.08
2019-06-26T07:07:36.753Z,98982.05
2019-06-26T07:10:07.307Z,98985.81
2019-06-26T07:12:36.011Z,98983.58
2019-06-26T07:15:07.678Z,98984.09
2019-06-26T07:17:36.488Z,98983.22
2019-06-26T07:20:06.612Z,98988.36
2019-06-26T07:22:35.348Z,98983.59
2019-06-26T07:25:04.857Z,98989.48
2019-06-26T07:27:33.575Z,98981.58
2019-06-26T07:30:02.343Z,98984.52
2019-06-26T07:32:31.090Z,98980.56
2019-06-26T07:34:59.809Z,98982.69
2019-06-26T07:37:28.543Z,98985.55
2019-06-26T07:40:01.507Z,98983.37
2019-06-26T07:42:27.716Z,98993.34
2019-06-26T07:44:56.427Z,98994.56
2019-06-26T07:47:41.507Z,98994.56
2019-06-26T07:49:55.575Z,98993.03
2019-06-26T07:52:24.284Z,98994.47
2019-06-26T07:54:53.087Z,98996.41
2019-06-26T07:57:21.850Z,99004.16
2019-06-26T07:59:50.550Z,99002.63
2019-06-26T08:02:19.320Z,98991.85
2019-06-26T08:04:48.038Z,98998.77
2019-06-26T08:07:16.748Z,99005.67
2019-06-26T08:09:45.544Z,99004.61
2019-06-26T08:12:14.258Z,99007.86
2019-06-26T08:14:43.023Z,99009.13
2019-06-26T08:17:11.739Z,99009.34
2019-06-26T08:19:40.459Z,99008.25
2019-06-26T08:22:09.172Z,99008.70
2019-06-26T08:24:37.879Z,99004.20
2019-06-26T08:27:06.651Z,99000.71
2019-06-26T08:29:35.412Z,99003.77
2019-06-26T08:32:04.133Z,99006.66
2019-06-26T08:34:32.970Z,99006.28
2019-06-26T08:37:01.685Z,99004.01
2019-06-26T08:39:30.452Z,99007.72
2019-06-26T08:41:59.209Z,99006.48
2019-06-26T08:44:27.927Z,99008.12
2019-06-26T08:46:56.673Z,99008.33
2019-06-26T08:49:26.661Z,99014.31
2019-06-26T08:51:55.889Z,99014.16
2019-06-26T08:54:24.618Z,99010.61
2019-06-26T08:56:53.391Z,99012.98
2019-06-26T08:59:22.525Z,99012.52
2019-06-26T09:01:51.233Z,99008.33
2019-06-26T09:04:19.940Z,99008.16
2019-06-26T09:06:48.671Z,99010.05
2019-06-26T09:09:17.376Z,99002.91
2019-06-26T09:11:46.121Z,99006.36
2019-06-26T09:14:14.838Z,99008.55
2019-06-26T09:16:43.575Z,99007.14
2019-06-26T09:19:12.290Z,99004.63
2019-06-26T09:21:40.806Z,99000.30
2019-06-26T09:24:09.559Z,98996.00
2019-06-26T09:26:38.268Z,99000.38
2019-06-26T09:29:07.007Z,98998.67
2019-06-26T09:31:35.728Z,99002.73
2019-06-26T09:34:04.637Z,98996.20
2019-06-26T09:36:33.368Z,98986.72
2019-06-26T09:39:02.075Z,98988.37
2019-06-26T09:41:30.834Z,98988.58
2019-06-26T09:43:59.550Z,98984.48
2019-06-26T09:46:28.334Z,98990.45
2019-06-26T09:48:57.113Z,98985.52
2019-06-26T09:51:25.825Z,98981.42
2019-06-26T09:53:54.541Z,98977.31
2019-06-26T09:56:23.288Z,98981.83
2019-06-26T09:58:52.006Z,98979.50
2019-06-26T10:01:20.713Z,98983.09
2019-06-26T10:03:49.432Z,98980.27
2019-06-26T10:06:18.141Z,98971.37
2019-06-26T10:08:46.901Z,98964.93
2019-06-26T10:11:15.616Z,98961.38
2019-06-26T10:13:44.331Z,98960.80
2019-06-26T10:16:13.097Z,98950.50
2019-06-26T10:18:41.810Z,98941.45
2019-06-26T10:21:10.521Z,98935.60
2019-06-26T10:23:39.253Z,98944.71
2019-06-26T10:26:08.023Z,98955.06
2019-06-26T10:28:36.803Z,98950.20
2019-06-26T10:31:05.520Z,98944.45
2019-06-26T10:33:34.233Z,98949.80
2019-06-26T10:36:02.987Z,98944.33
2019-06-26T10:38:31.700Z,98937.86
2019-06-26T10:41:00.415Z,98935.89
2019-06-26T10:43:29.132Z,98930.51
2019-06-26T10:45:57.849Z,98934.20
2019-06-26T10:48:26.626Z,98935.42
2019-06-26T10:50:58.909Z,98929.70
2019-06-26T10:53:25.769Z,98930.67
2019-06-26T10:55:54.541Z,98927.59
2019-06-26T10:58:23.256Z,98922.65
2019-06-26T11:00:51.970Z,98917.98
2019-06-26T11:03:20.689Z,98918.56
2019-06-26T11:05:49.402Z,98916.58
2019-06-26T11:08:18.161Z,98919.16
2019-06-26T11:10:46.929Z,98917.23
2019-06-26T11:13:15.680Z,98915.64
2019-06-26T11:15:44.398Z,98909.59
2019-06-26T11:18:13.163Z,98897.66
2019-06-26T11:20:42.251Z,98901.63
2019-06-26T11:23:10.970Z,98893.58
2019-06-26T11:25:39.786Z,98892.75
2019-06-26T11:28:08.487Z,98889.33
2019-06-26T11:30:37.299Z,98880.41
2019-06-26T11:33:06.062Z,98889.13
2019-06-26T11:35:34.772Z,98870.49
2019-06-26T11:38:03.484Z,98866.48
2019-06-26T11:40:32.203Z,98876.77
2019-06-26T11:43:00.971Z,98879.31
2019-06-26T11:45:29.748Z,98876.28
2019-06-26T11:47:58.465Z,98867.54
2019-06-26T11:50:27.182Z,98875.20
2019-06-26T11:52:55.910Z,98866.37
2019-06-26T11:55:24.919Z,98862.83
2019-06-26T11:57:53.638Z,98857.17
2019-06-26T12:00:24.714Z,98857.47
2019-06-26T12:02:53.418Z,98850.02
2019-06-26T12:05:22.943Z,98848.80
2019-06-26T12:07:51.683Z,98854.89
2019-06-26T12:10:20.940Z,98848.20
2019-06-26T12:12:49.689Z,98847.11
2019-06-26T12:15:20.854Z,98865.03
2019-06-26T12:17:49.667Z,98856.10
2019-06-26T12:20:20.199Z,98847.14
2019-06-26T12:22:48.914Z,98844.53
2019-06-26T12:25:17.736Z,98843.05
2019-06-26T12:27:46.436Z,98834.02
2019-06-26T12:30:15.477Z,98836.01
2019-06-26T12:33:01.649Z,98826.42
2019-06-26T12:35:15.422Z,98833.58
2019-06-26T12:37:44.133Z,98830.28
2019-06-26T12:40:12.959Z,98834.93
2019-06-26T12:42:41.797Z,98832.66
2019-06-26T12:45:10.805Z,98834.25
2019-06-26T12:47:39.517Z,98822.48
2019-06-26T12:50:09.177Z,98816.48
2019-06-26T12:52:37.885Z,98819.37
2019-06-26T12:55:07.398Z,98814.44
2019-06-26T12:57:36.122Z,98816.32
2019-06-26T13:00:07.879Z,98812.84
2019-06-26T13:02:36.658Z,98813.27
2019-06-26T13:05:07.071Z,98821.81
2019-06-26T13:07:35.878Z,98820.00
2019-06-26T13:10:07.662Z,98854.58
2019-06-26T13:12:37.132Z,98863.14
2019-06-26T13:15:10.115Z,98857.76
2019-06-26T13:17:38.835Z,98864.45
2019-06-26T13:20:11.469Z,98863.92
2019-06-26T13:22:40.208Z,98873.30
2019-06-26T13:25:09.546Z,98876.20
2019-06-26T13:27:38.239Z,98861.84
2019-06-26T13:30:08.356Z,98858.53
2019-06-26T13:32:37.066Z,98880.91
2019-06-26T13:35:07.107Z,98884.47
2019-06-26T13:37:35.810Z,98879.81
2019-06-26T13:40:06.566Z,98877.95
2019-06-26T13:42:35.268Z,98872.27
2019-06-26T13:45:06.123Z,98871.77
2019-06-26T13:47:34.872Z,98892.17
2019-06-26T13:50:05.198Z,98869.50
2019-06-26T13:52:33.899Z,98865.64
2019-06-26T13:55:02.618Z,98863.09
2019-06-26T13:57:31.334Z,98873.83
2019-06-26T14:00:00.091Z,98876.38
2019-06-26T14:02:28.832Z,98870.83
2019-06-26T14:04:57.518Z,98888.56
2019-06-26T14:07:26.236Z,98937.89
2019-06-26T14:09:54.945Z,98954.20
2019-06-26T14:12:23.698Z,98955.96
2019-06-26T14:14:57.712Z,98921.98
2019-06-26T14:17:22.850Z,98919.28
2019-06-26T14:19:51.605Z,98909.69
2019-06-26T14:22:20.337Z,98897.02
2019-06-26T14:24:49.023Z,98886.11
2019-06-26T14:27:17.746Z,98878.53
2019-06-26T14:29:46.441Z,98862.28
2019-06-26T14:32:15.192Z,98856.80
2019-06-26T14:34:43.941Z,98856.92
2019-06-26T14:37:12.650Z,98846.89
2019-06-26T14:39:41.369Z,98855.05
2019-06-26T14:42:10.087Z,98856.80
2019-06-26T14:44:38.815Z,98850.45
2019-06-26T14:47:07.516Z,98842.89
2019-06-26T14:49:36.224Z,98839.02
2019-06-26T14:52:04.936Z,98845.39
2019-06-26T14:54:33.637Z,98850.28
2019-06-26T14:57:02.407Z,98842.63
2019-06-26T14:59:31.113Z,98850.42
2019-06-26T15:01:59.819Z,98844.17
2019-06-26T15:04:28.545Z,98852.04
2019-06-26T15:06:57.244Z,98864.45
2019-06-26T15:09:26.013Z,98865.70
2019-06-26T15:11:54.724Z,98872.09
2019-06-26T15:14:23.433Z,98873.45
2019-06-26T15:16:52.192Z,98866.25
2019-06-26T15:19:20.906Z,98872.68
2019-06-26T15:21:58.440Z,98868.02
2019-06-26T15:24:20.103Z,98862.27
2019-06-26T15:26:48.813Z,98865.91
2019-06-26T15:29:17.529Z,98865.31
2019-06-26T15:31:46.251Z,98870.22
2019-06-26T15:34:14.966Z,98881.42
2019-06-26T15:36:43.742Z,98872.50
2019-06-26T15:39:12.426Z,98873.72
2019-06-26T15:41:41.139Z,98870.78
2019-06-26T15:44:09.914Z,98873.75
2019-06-26T15:46:38.634Z,98881.62
2019-06-26T15:49:07.345Z,98881.22
2019-06-26T15:51:36.073Z,98879.48
2019-06-26T15:54:04.795Z,98882.02
2019-06-26T15:56:33.559Z,98884.95
2019-06-26T15:59:02.281Z,98890.58
2019-06-26T16:01:30.991Z,98886.22
2019-06-26T16:03:59.717Z,98892.43
2019-06-26T16:06:29.499Z,98900.85
2019-06-26T16:08:58.243Z,98904.44
2019-06-26T16:11:26.957Z,98906.11
2019-06-26T16:13:55.670Z,98911.47
2019-06-26T16:16:25.260Z,98914.50
2019-06-26T16:18:58.459Z,98922.88
2019-06-26T16:21:27.176Z,98933.31
2019-06-26T16:23:55.903Z,98935.67
2019-06-26T16:26:25.784Z,98930.32
2019-06-26T16:28:54.531Z,98944.23
2019-06-26T16:31:23.241Z,98944.46
2019-06-26T16:33:51.961Z,98943.31
2019-06-26T16:36:20.698Z,98949.94
2019-06-26T16:38:49.412Z,98953.40
2019-06-26T16:41:18.186Z,98954.03
2019-06-26T16:43:46.901Z,98955.86
2019-06-26T16:46:15.612Z,98950.31
2019-06-26T16:48:44.381Z,98943.16
2019-06-26T16:51:13.098Z,98938.55
2019-06-26T16:53:41.809Z,98929.18
2019-06-26T16:56:10.526Z,98931.70
2019-06-26T16:58:39.235Z,98922.05
2019-06-26T17:01:07.997Z,98914.73
2019-06-26T17:03:36.706Z,98909.98
2019-06-26T17:06:05.512Z,98904.68
2019-06-26T17:08:34.267Z,98897.35
2019-06-26T17:11:03.080Z,98892.63
2019-06-26T17:13:31.774Z,98892.48
2019-06-26T17:16:00.495Z,98896.81
2019-06-26T17:18:29.218Z,98906.47
2019-06-26T17:20:57.971Z,98908.39
2019-06-26T17:23:26.699Z,98912.47
2019-06-26T17:25:55.444Z,98912.56
2019-06-26T17:28:24.201Z,98917.73
2019-06-26T17:30:53.114Z,98917.61
2019-06-26T17:33:21.852Z,98911.13
2019-06-26T17:35:50.595Z,98911.60
2019-06-26T17:38:19.307Z,98912.22
2019-06-26T17:40:48.063Z,98913.59
2019-06-26T17:43:16.768Z,98912.74
2019-06-26T17:45:45.490Z,98912.74
2019-06-26T17:48:14.228Z,98917.05
2019-06-26T17:50:42.944Z,98914.40
2019-06-26T17:53:21.083Z,98909.15
2019-06-26T17:55:42.153Z,98912.44
2019-06-26T17:58:10.865Z,98903.21
2019-06-26T18:00:39.721Z,98902.38
2019-06-26T18:03:08.433Z,98894.51
2019-06-26T18:05:37.143Z,98889.73
2019-06-26T18:08:05.887Z,98879.22
2019-06-26T18:10:34.593Z,98889.09
2019-06-26T18:13:03.357Z,98890.97
2019-06-26T18:15:32.066Z,98892.70
2019-06-26T18:18:00.777Z,98900.48
2019-06-26T18:20:30.940Z,98896.78
2019-06-26T18:23:07.248Z,98896.17
2019-06-26T18:25:30.103Z,98900.06
2019-06-26T18:27:58.816Z,98899.70
2019-06-26T18:30:27.532Z,98896.64
2019-06-26T18:32:56.248Z,98900.64
2019-06-26T18:35:24.958Z,98902.72
2019-06-26T18:37:53.678Z,98896.89
2019-06-26T18:40:22.409Z,98902.23
2019-06-26T18:42:51.131Z,98902.38
2019-06-26T18:45:19.851Z,98907.72
2019-06-26T18:47:48.682Z,98903.66
2019-06-26T18:50:17.392Z,98914.95
2019-06-26T18:52:46.114Z,98914.10
2019-06-26T18:55:14.966Z,98910.30
2019-06-26T18:57:43.678Z,98911.78
2019-06-26T19:00:12.589Z,98907.34
2019-06-26T19:02:41.307Z,98910.23
2019-06-26T19:05:10.111Z,98910.78
2019-06-26T19:07:38.876Z,98918.44
2019-06-26T19:10:08.694Z,98926.70
2019-06-26T19:12:37.401Z,98924.64
2019-06-26T19:15:07.433Z,98919.95
2019-06-26T19:17:36.139Z,98922.42
2019-06-26T19:20:07.771Z,98925.59
2019-06-26T19:22:36.480Z,98915.93
2019-06-26T19:25:07.274Z,98919.86
2019-06-26T19:27:35.982Z,98923.11
2019-06-26T19:30:07.646Z,98930.64
2019-06-26T19:32:37.536Z,98933.28
2019-06-26T19:35:18.082Z,98927.52
2019-06-26T19:37:37.363Z,98924.88
2019-06-26T19:40:08.762Z,98919.25
2019-06-26T19:42:36.782Z,98927.19
2019-06-26T19:45:09.591Z,98927.59
2019-06-26T19:47:38.303Z,98920.91
2019-06-26T19:50:08.317Z,98925.24
2019-06-26T19:52:37.319Z,98918.96
2019-06-26T19:55:06.342Z,98928.04
2019-06-26T19:57:35.095Z,98929.25
2019-06-26T20:00:05.845Z,98929.66
2019-06-26T20:02:34.543Z,98937.05
2019-06-26T20:05:11.740Z,98926.38
2019-06-26T20:07:53.086Z,98918.95
2019-06-26T20:10:36.502Z,98917.02
2019-06-26T20:13:19.139Z,98910.98
2019-06-26T20:15:57.046Z,98910.80
2019-06-26T20:18:28.492Z,98908.56
2019-06-26T20:21:01.673Z,98910.80
2019-06-26T20:23:35.526Z,98904.52
2019-06-26T20:26:13.235Z,98908.97
2019-06-26T20:28:50.436Z,98902.80
2019-06-26T20:31:22.488Z,98912.23
2019-06-26T20:33:53.786Z,98915.70
2019-06-26T20:42:08.504Z,98915.37
2019-06-26T20:44:41.834Z,98911.28
2019-06-26T20:47:23.132Z,98915.56
2019-06-26T20:49:58.327Z,98911.09
2019-06-26T20:52:36.574Z,98903.76
2019-06-26T21:00:50.685Z,98907.39
2019-06-26T21:03:22.832Z,98904.98
2019-06-26T21:05:53.322Z,98902.34
2019-06-26T21:08:31.936Z,98907.22
2019-06-26T21:11:05.951Z,98911.19
2019-06-26T21:13:42.011Z,98910.47
2019-06-26T21:16:13.845Z,98916.52
2019-06-26T21:18:43.155Z,98908.52
2019-06-26T21:21:17.901Z,98890.20
2019-06-26T21:23:53.548Z,98913.13
2019-06-26T21:26:30.697Z,98906.77
2019-06-26T21:29:01.021Z,98902.39
2019-06-26T21:31:32.792Z,98904.95
2019-06-26T21:34:14.012Z,98901.27
2019-06-26T21:37:05.326Z,98898.45
2019-06-26T21:39:45.574Z,98884.10
2019-06-26T21:42:17.999Z,98886.53
2019-06-26T21:44:54.396Z,98883.10
2019-06-26T21:47:32.602Z,98883.73
2019-06-26T21:50:01.366Z,98884.81
2019-06-26T21:52:30.108Z,98884.78
2019-06-26T21:54:58.870Z,98873.05
2019-06-26T21:57:27.579Z,98874.28
2019-06-26T21:59:56.333Z,98868.04
2019-06-26T22:02:25.049Z,98875.31
2019-06-26T22:04:53.771Z,98875.29
2019-06-26T22:07:22.611Z,98871.35
2019-06-26T22:09:51.309Z,98863.43
2019-06-26T22:12:20.374Z,98865.25
2019-06-26T22:14:49.080Z,98868.18
2019-06-26T22:17:17.787Z,98864.78
2019-06-26T22:19:46.507Z,98866.22
2019-06-26T22:22:15.214Z,98858.37
2019-06-26T22:24:43.985Z,98856.95
2019-06-26T22:27:12.897Z,98851.02
2019-06-26T22:29:41.620Z,98844.78
2019-06-26T22:32:10.342Z,98846.67
2019-06-26T22:34:39.061Z,98843.27
2019-06-26T22:37:07.829Z,98837.96
2019-06-26T22:39:36.549Z,98834.85
2019-06-26T22:42:05.257Z,98839.61
2019-06-26T22:44:34.011Z,98838.14
2019-06-26T22:47:02.719Z,98831.42
2019-06-26T22:49:31.433Z,98834.38
2019-06-26T22:52:00.151Z,98835.27
2019-06-26T22:54:28.877Z,98829.10
2019-06-26T22:56:57.657Z,98824.67
2019-06-26T22:59:26.372Z,98822.44
2019-06-26T23:01:55.093Z,98823.01
2019-06-26T23:04:23.902Z,98820.77
2019-06-26T23:06:52.670Z,98821.18
2019-06-26T23:09:21.399Z,98826.84
2019-06-26T23:11:50.121Z,98820.90
2019-06-26T23:14:18.849Z,98822.97
2019-06-26T23:16:47.579Z,98820.27
2019-06-26T23:19:16.303Z,98819.86
2019-06-26T23:21:45.069Z,98815.89
2019-06-26T23:24:13.796Z,98812.81
2019-06-26T23:26:42.519Z,98812.84
2019-06-26T23:29:11.248Z,98812.84
2019-06-26T23:31:39.964Z,98806.09
2019-06-26T23:34:08.777Z,98805.66
2019-06-26T23:36:37.531Z,98802.73
2019-06-26T23:39:06.491Z,98811.13
2019-06-26T23:41:35.247Z,98800.78
2019-06-26T23:44:04.020Z,98800.33
2019-06-26T23:46:32.806Z,98800.95
2019-06-26T23:49:01.560Z,98800.66
2019-06-26T23:51:30.438Z,98806.78
2019-06-26T23:53:59.154Z,98806.02
2019-06-26T23:56:40.067Z,98805.92
2019-06-26T23:58:58.437Z,98809.97
